Time;durP1;ratioP1;P1;durP2;ratioP2;P2;SDS_P1;SDS_P2;PMS_P1;PMS_P2;Temp;Humidity;BMP_temperature;BMP_pressure;BME280_temperature;BME280_humidity;BME280_pressure;Samples;Min_cycle;Max_cycle;Signal;HPM_P1;HPM_P2
2021/09/20 00:01:03;;;;;;;1.15;0.90;;;;;;;;;;5055107;28;20048;-89
2021/09/20 00:03:32;;;;;;;1.42;1.00;;;;;;;;;;5056028;28;20041;-89
2021/09/20 00:05:59;;;;;;;1.48;1.05;;;;;;;;;;5054649;28;20099;-89
2021/09/20 00:08:26;;;;;;;2.65;1.10;;;;;;;;;;5046855;28;20107;-89
2021/09/20 00:10:52;;;;;;;1.58;1.10;;;;;;;;;;5054855;28;20388;-89
2021/09/20 00:13:19;;;;;;;2.65;1.25;;;;;;;;;;5055204;28;20461;-88
2021/09/20 00:15:46;;;;;;;2.08;1.20;;;;;;;;;;5056116;28;20048;-88
2021/09/20 00:18:13;;;;;;;3.35;1.20;;;;;;;;;;5056336;28;20045;-88
2021/09/20 00:20:41;;;;;;;1.70;1.27;;;;;;;;;;5035298;28;20052;-89
2021/09/20 00:23:08;;;;;;;3.45;1.10;;;;;;;;;;5052318;28;20374;-89
2021/09/20 00:25:35;;;;;;;1.48;1.00;;;;;;;;;;5055104;28;20037;-88
2021/09/20 00:28:02;;;;;;;1.15;0.88;;;;;;;;;;5056346;28;20709;-88
2021/09/20 00:30:29;;;;;;;1.70;1.08;;;;;;;;;;5055615;28;20049;-89
2021/09/20 00:32:56;;;;;;;1.83;1.17;;;;;;;;;;5055593;28;20048;-88
2021/09/20 00:35:23;;;;;;;1.45;0.93;;;;;;;;;;5055571;28;20404;-88
2021/09/20 00:37:52;;;;;;;2.03;1.17;;;;;;;;;;5035017;28;20045;-88
2021/09/20 00:40:18;;;;;;;2.85;0.90;;;;;;;;;;5053134;28;20488;-90
2021/09/20 00:42:45;;;;;;;1.48;1.10;;;;;;;;;;5055331;28;20411;-88
2021/09/20 00:45:12;;;;;;;1.48;1.00;;;;;;;;;;5038017;28;20053;-89
2021/09/20 00:47:39;;;;;;;1.55;1.02;;;;;;;;;;5054682;28;20098;-89
2021/09/20 00:50:07;;;;;;;1.83;1.10;;;;;;;;;;5055751;28;20044;-90
2021/09/20 00:52:34;;;;;;;1.42;1.20;;;;;;;;;;5054767;28;20107;-89
2021/09/20 00:55:02;;;;;;;1.58;0.95;;;;;;;;;;5035622;28;20424;-88
2021/09/20 00:57:29;;;;;;;2.53;1.20;;;;;;;;;;5036245;28;20049;-88
2021/09/20 00:59:56;;;;;;;2.13;1.13;;;;;;;;;;5054991;28;20049;-88
2021/09/20 01:02:23;;;;;;;1.80;1.30;;;;;;;;;;5054274;28;20044;-89
2021/09/20 01:04:50;;;;;;;2.30;1.20;;;;;;;;;;5038068;28;20049;-89
2021/09/20 01:07:17;;;;;;;3.33;1.25;;;;;;;;;;5051651;28;20053;-88
2021/09/20 01:09:45;;;;;;;2.53;1.30;;;;;;;;;;5027923;28;20040;-88
2021/09/20 01:12:14;;;;;;;2.67;1.40;;;;;;;;;;5032839;28;20069;-89
2021/09/20 01:14:41;;;;;;;2.63;1.35;;;;;;;;;;5054830;28;20485;-88
2021/09/20 01:17:08;;;;;;;2.00;1.30;;;;;;;;;;5054117;28;20048;-90
2021/09/20 01:19:35;;;;;;;1.77;1.30;;;;;;;;;;5054747;28;20043;-89
2021/09/20 01:22:04;;;;;;;2.13;1.30;;;;;;;;;;5055237;28;20049;-89
2021/09/20 01:24:32;;;;;;;1.70;1.10;;;;;;;;;;5053062;28;20492;-88
2021/09/20 01:27:01;;;;;;;2.40;1.60;;;;;;;;;;5042736;28;20481;-88
2021/09/20 01:29:27;;;;;;;2.10;1.50;;;;;;;;;;5052092;28;20057;-88
2021/09/20 01:31:54;;;;;;;2.60;1.60;;;;;;;;;;5036927;28;20052;-89
2021/09/20 01:34:21;;;;;;;2.17;1.30;;;;;;;;;;5022631;28;20045;-89
2021/09/20 01:36:48;;;;;;;2.22;1.30;;;;;;;;;;5035101;28;20037;-89
2021/09/20 01:39:18;;;;;;;1.50;1.20;;;;;;;;;;5017331;28;20049;-89
2021/09/20 01:41:48;;;;;;;2.33;1.52;;;;;;;;;;5034495;28;20049;-89
2021/09/20 01:44:15;;;;;;;2.75;1.85;;;;;;;;;;5036430;28;20040;-89
2021/09/20 01:46:42;;;;;;;2.47;1.73;;;;;;;;;;5046397;28;20067;-90
2021/09/20 01:49:09;;;;;;;4.25;1.63;;;;;;;;;;5051394;28;20047;-88
2021/09/20 01:51:36;;;;;;;2.45;1.50;;;;;;;;;;5052143;28;20485;-89
2021/09/20 01:54:03;;;;;;;2.75;2.05;;;;;;;;;;5046519;28;20125;-88
2021/09/20 01:56:30;;;;;;;3.90;2.70;;;;;;;;;;5048502;28;20051;-88
2021/09/20 01:58:59;;;;;;;3.20;2.10;;;;;;;;;;5053344;28;20102;-89
2021/09/20 02:01:25;;;;;;;4.13;2.30;;;;;;;;;;5054212;28;20041;-88
2021/09/20 02:03:53;;;;;;;2.78;2.25;;;;;;;;;;5052880;28;20452;-88
2021/09/20 02:06:20;;;;;;;3.53;2.72;;;;;;;;;;5053106;28;20072;-89
2021/09/20 02:08:47;;;;;;;4.05;2.15;;;;;;;;;;5053940;28;20378;-90
2021/09/20 02:11:14;;;;;;;2.78;2.13;;;;;;;;;;5053133;28;20044;-89
2021/09/20 02:13:41;;;;;;;4.18;2.75;;;;;;;;;;5053206;28;20385;-88
2021/09/20 02:16:09;;;;;;;3.58;2.55;;;;;;;;;;5052680;28;20416;-89
2021/09/20 02:18:39;;;;;;;3.58;2.42;;;;;;;;;;5036485;28;20041;-89
2021/09/20 02:21:06;;;;;;;3.20;2.60;;;;;;;;;;5052636;28;20473;-89
2021/09/20 02:23:33;;;;;;;3.33;2.15;;;;;;;;;;5053950;28;20483;-90
2021/09/20 02:26:01;;;;;;;4.32;2.47;;;;;;;;;;5053422;28;20051;-89
2021/09/20 02:28:28;;;;;;;3.03;2.03;;;;;;;;;;5053088;28;20051;-89
2021/09/20 02:30:55;;;;;;;3.05;2.13;;;;;;;;;;5054036;28;20045;-89
2021/09/20 02:33:24;;;;;;;4.57;2.40;;;;;;;;;;5050857;28;20044;-89
2021/09/20 02:35:51;;;;;;;3.80;2.22;;;;;;;;;;5042638;28;20045;-89
2021/09/20 02:38:18;;;;;;;3.10;2.00;;;;;;;;;;5051059;28;20473;-90
2021/09/20 02:40:44;;;;;;;3.33;2.08;;;;;;;;;;5053258;28;20053;-89
2021/09/20 02:43:11;;;;;;;2.63;1.77;;;;;;;;;;5051981;28;20047;-90
2021/09/20 02:45:38;;;;;;;3.78;2.10;;;;;;;;;;5052288;28;20045;-89
2021/09/20 02:48:05;;;;;;;2.90;2.10;;;;;;;;;;5053428;28;20519;-89
2021/09/20 02:50:33;;;;;;;3.00;1.80;;;;;;;;;;5053379;28;20362;-88
2021/09/20 02:53:00;;;;;;;3.33;2.20;;;;;;;;;;5052599;28;20049;-89
2021/09/20 02:55:27;;;;;;;2.90;2.08;;;;;;;;;;5035640;28;20052;-89
2021/09/20 02:57:54;;;;;;;3.05;2.10;;;;;;;;;;5052187;28;20044;-88
2021/09/20 03:00:21;;;;;;;3.60;2.10;;;;;;;;;;5051779;28;20393;-89
2021/09/20 03:02:48;;;;;;;3.90;1.90;;;;;;;;;;5043096;28;20045;-90
2021/09/20 03:05:15;;;;;;;5.28;2.38;;;;;;;;;;5016243;28;20099;-89
2021/09/20 03:07:43;;;;;;;2.25;1.75;;;;;;;;;;5035959;28;20417;-89
2021/09/20 03:10:11;;;;;;;4.10;1.83;;;;;;;;;;5051508;28;20049;-90
2021/09/20 03:12:38;;;;;;;4.55;3.00;;;;;;;;;;5054390;28;20041;-89
2021/09/20 03:15:06;;;;;;;5.30;3.47;;;;;;;;;;5054734;28;20049;-89
2021/09/20 03:17:34;;;;;;;6.70;3.33;;;;;;;;;;5053853;28;20045;-88
2021/09/20 03:20:01;;;;;;;6.45;4.60;;;;;;;;;;5052861;28;20503;-89
2021/09/20 03:22:28;;;;;;;7.18;4.78;;;;;;;;;;5051483;28;20053;-89
2021/09/20 03:24:56;;;;;;;6.63;4.35;;;;;;;;;;5052454;28;20045;-88
2021/09/20 03:27:23;;;;;;;6.95;5.15;;;;;;;;;;5052711;28;20388;-89
2021/09/20 03:29:50;;;;;;;8.63;5.10;;;;;;;;;;5052622;28;20044;-89
2021/09/20 03:32:17;;;;;;;6.88;4.75;;;;;;;;;;5034872;28;20072;-89
2021/09/20 03:34:44;;;;;;;7.43;4.55;;;;;;;;;;5045469;28;20041;-89
2021/09/20 03:37:10;;;;;;;9.73;5.75;;;;;;;;;;5015421;28;20045;-89
2021/09/20 03:39:37;;;;;;;8.25;5.35;;;;;;;;;;5046482;28;20064;-89
2021/09/20 03:42:06;;;;;;;9.13;5.47;;;;;;;;;;5042874;28;20045;-90
2021/09/20 03:44:33;;;;;;;7.40;4.95;;;;;;;;;;5030731;28;20409;-89
2021/09/20 03:47:00;;;;;;;6.75;4.75;;;;;;;;;;5031939;28;20052;-88
2021/09/20 03:49:27;;;;;;;9.65;5.72;;;;;;;;;;5032422;28;20136;-89
2021/09/20 03:51:54;;;;;;;7.10;5.00;;;;;;;;;;5042470;28;20546;-88
2021/09/20 03:54:21;;;;;;;10.50;5.65;;;;;;;;;;5043683;28;20135;-89
2021/09/20 03:56:47;;;;;;;10.13;5.70;;;;;;;;;;5050965;28;20081;-88
2021/09/20 03:59:16;;;;;;;7.40;5.30;;;;;;;;;;5034959;28;20052;-89
2021/09/20 04:01:43;;;;;;;10.35;5.93;;;;;;;;;;5043820;28;20045;-89
2021/09/20 04:04:10;;;;;;;7.68;5.35;;;;;;;;;;5048837;28;20069;-89
2021/09/20 04:06:37;;;;;;;9.73;5.72;;;;;;;;;;5052950;28;20064;-89
2021/09/20 04:09:04;;;;;;;10.90;6.28;;;;;;;;;;5034552;28;20503;-89
2021/09/20 04:11:31;;;;;;;8.95;5.53;;;;;;;;;;5046194;28;20064;-89
2021/09/20 04:13:58;;;;;;;9.35;5.95;;;;;;;;;;5014987;28;20049;-89
2021/09/20 04:16:27;;;;;;;9.65;5.70;;;;;;;;;;5031031;28;20393;-89
2021/09/20 04:18:53;;;;;;;11.75;7.15;;;;;;;;;;5015290;28;20056;-89
2021/09/20 04:21:20;;;;;;;11.02;6.57;;;;;;;;;;5032874;28;20049;-89
2021/09/20 04:23:47;;;;;;;13.40;6.78;;;;;;;;;;5034603;28;20045;-89
2021/09/20 04:26:14;;;;;;;11.80;6.75;;;;;;;;;;5052189;28;20040;-89
2021/09/20 04:28:41;;;;;;;10.90;6.32;;;;;;;;;;5051799;28;20045;-89
2021/09/20 04:31:11;;;;;;;10.80;6.75;;;;;;;;;;5033943;28;20053;-88
2021/09/20 04:33:40;;;;;;;13.15;7.35;;;;;;;;;;5038300;28;20544;-89
2021/09/20 04:36:07;;;;;;;12.48;7.60;;;;;;;;;;5036165;28;20496;-89
2021/09/20 04:38:34;;;;;;;14.23;7.28;;;;;;;;;;5038775;28;20709;-88
2021/09/20 04:41:01;;;;;;;13.80;7.43;;;;;;;;;;5038224;28;20045;-88
2021/09/20 04:43:31;;;;;;;13.63;8.20;;;;;;;;;;5056409;28;20131;-89
2021/09/20 04:45:59;;;;;;;15.40;8.23;;;;;;;;;;5056727;28;20045;-89
2021/09/20 04:48:26;;;;;;;16.85;8.90;;;;;;;;;;5055451;28;20049;-89
2021/09/20 04:50:57;;;;;;;13.77;8.07;;;;;;;;;;5038284;28;20044;-89
2021/09/20 04:53:33;;;;;;;15.25;8.82;;;;;;;;;;5070941;28;20076;-89
2021/09/20 04:56:25;;;;;;;20.48;9.50;;;;;;;;;;5055295;28;20045;-90
2021/09/20 04:58:55;;;;;;;17.73;9.45;;;;;;;;;;5049653;28;20463;-90
2021/09/20 05:01:37;;;;;;;16.80;10.70;;;;;;;;;;5048541;28;20087;-90
2021/09/20 05:04:21;;;;;;;24.60;9.65;;;;;;;;;;5054033;28;20132;-89
2021/09/20 05:07:05;;;;;;;16.77;9.45;;;;;;;;;;5039612;28;20763;-89
2021/09/20 05:09:36;;;;;;;19.77;9.90;;;;;;;;;;5040115;28;20496;-90
2021/09/20 05:12:18;;;;;;;15.63;9.27;;;;;;;;;;5041813;28;20045;-89
2021/09/20 05:14:48;;;;;;;21.15;9.25;;;;;;;;;;5052022;28;20511;-90
2021/09/20 05:17:20;;;;;;;16.98;9.23;;;;;;;;;;5055414;28;20076;-90
2021/09/20 05:20:04;;;;;;;16.98;9.55;;;;;;;;;;5055006;28;20049;-90
2021/09/20 05:22:44;;;;;;;19.35;10.13;;;;;;;;;;5054404;28;20041;-90
2021/09/20 05:25:17;;;;;;;15.65;9.55;;;;;;;;;;5055219;28;20041;-89
2021/09/20 05:27:58;;;;;;;18.67;10.25;;;;;;;;;;5042392;28;20045;-89
2021/09/20 05:30:34;;;;;;;17.35;10.25;;;;;;;;;;5034995;28;20053;-91
2021/09/20 05:33:05;;;;;;;20.25;10.35;;;;;;;;;;5052963;28;20046;-89
2021/09/20 05:35:32;;;;;;;17.95;10.73;;;;;;;;;;5054253;28;20036;-89
2021/09/20 05:41:46;;;;;;;19.60;10.35;;;;;;;;;;5039318;28;20068;-90
2021/09/20 05:44:41;;;;;;;19.75;10.32;;;;;;;;;;5054102;28;20045;-90
2021/09/20 05:47:13;;;;;;;18.48;10.70;;;;;;;;;;5051482;28;20048;-90
2021/09/20 05:52:31;;;;;;;20.90;11.38;;;;;;;;;;5054327;28;20081;-90
2021/09/20 05:55:01;;;;;;;22.70;12.45;;;;;;;;;;5052729;28;20377;-90
2021/09/20 05:57:31;;;;;;;21.45;10.52;;;;;;;;;;5054006;28;20056;-89
2021/09/20 06:00:02;;;;;;;24.80;12.93;;;;;;;;;;5054402;28;20465;-89
2021/09/20 06:02:28;;;;;;;18.05;10.23;;;;;;;;;;5035872;28;20046;-90
2021/09/20 06:04:55;;;;;;;20.60;11.30;;;;;;;;;;5034750;28;20095;-90
2021/09/20 06:07:22;;;;;;;25.55;12.23;;;;;;;;;;5047143;28;20122;-90
2021/09/20 06:09:49;;;;;;;22.60;11.45;;;;;;;;;;5047372;28;20052;-90
2021/09/20 06:12:17;;;;;;;20.63;10.90;;;;;;;;;;5051633;28;20048;-90
2021/09/20 06:15:16;;;;;;;22.98;11.80;;;;;;;;;;5054256;28;20080;-90
2021/09/20 06:17:45;;;;;;;23.15;11.73;;;;;;;;;;4953253;29;20054;-90
2021/09/20 06:20:25;;;;;;;21.60;11.55;;;;;;;;;;4989049;28;20537;-89
2021/09/20 06:23:08;;;;;;;21.73;11.18;;;;;;;;;;5034370;28;20492;-90
2021/09/20 06:28:19;;;;;;;19.70;11.00;;;;;;;;;;5052975;28;20474;-89
2021/09/20 06:31:15;;;;;;;20.15;10.88;;;;;;;;;;5052623;28;20128;-90
2021/09/20 06:33:58;;;;;;;23.45;11.98;;;;;;;;;;5032227;28;20046;-90
2021/09/20 06:36:37;;;;;;;22.02;12.00;;;;;;;;;;5034111;28;20041;-90
2021/09/20 06:39:22;;;;;;;22.02;11.93;;;;;;;;;;5032873;28;20091;-90
2021/09/20 06:44:40;;;;;;;21.25;11.15;;;;;;;;;;5051360;28;20492;-90
2021/09/20 06:53:20;;;;;;;21.92;11.40;;;;;;;;;;4997129;28;20037;-90
2021/09/20 06:56:01;;;;;;;20.92;10.35;;;;;;;;;;5053872;28;20059;-91
2021/09/20 06:59:02;;;;;;;21.83;11.43;;;;;;;;;;5052754;28;20040;-90
2021/09/20 07:09:21;;;;;;;;;;;;;;;;;;;;;
2021/09/20 07:25:48;;;;;;;17.33;10.27;;;;;;;;;;5008163;28;20045;-90
2021/09/20 07:28:34;;;;;;;18.20;10.23;;;;;;;;;;5047608;28;20064;-90
2021/09/20 07:31:01;;;;;;;16.52;9.75;;;;;;;;;;5052181;28;20041;-89
2021/09/20 07:33:32;;;;;;;16.92;9.80;;;;;;;;;;5053573;28;20147;-90
2021/09/20 07:36:20;;;;;;;17.80;9.70;;;;;;;;;;5052994;28;20052;-90
2021/09/20 07:38:56;;;;;;;18.38;10.07;;;;;;;;;;5051968;28;20051;-90
2021/09/20 07:47:49;;;;;;;17.55;9.98;;;;;;;;;;4990989;28;20050;-90
2021/09/20 07:59:32;;;;;;;13.48;7.40;;;;;;;;;;5027571;28;20473;-90
2021/09/20 08:05:36;;;;;;;12.40;7.43;;;;;;;;;;5009298;28;20053;-90
2021/09/20 08:08:03;;;;;;;12.90;7.20;;;;;;;;;;5033690;28;20111;-89
2021/09/20 08:10:55;;;;;;;12.43;8.10;;;;;;;;;;5037115;28;20048;-90
2021/09/20 08:13:22;;;;;;;13.07;7.85;;;;;;;;;;5056409;28;20049;-90
2021/09/20 08:46:51;;;;;;;15.43;7.85;;;;;;;;;;4917372;29;20055;-91
2021/09/20 09:16:36;;;;;;;14.95;9.05;;;;;;;;;;4935944;29;20052;-90
2021/09/20 09:19:52;;;;;;;;;;;;;;;;;;;;;
2021/09/20 10:43:50;;;;;;;11.85;8.00;;;;;;;;;;4877405;29;20191;-89
2021/09/20 10:46:21;;;;;;;13.03;9.43;;;;;;;;;;4863277;29;20057;-90
2021/09/20 10:48:54;;;;;;;17.80;8.77;;;;;;;;;;4943677;28;20043;-90
2021/09/20 10:51:32;;;;;;;16.52;9.65;;;;;;;;;;5031980;28;20060;-90
2021/09/20 10:54:20;;;;;;;15.30;10.45;;;;;;;;;;5034897;28;20041;-90
2021/09/20 10:56:55;;;;;;;13.50;9.93;;;;;;;;;;5042582;28;20043;-90
2021/09/20 10:59:27;;;;;;;14.90;9.37;;;;;;;;;;5050916;28;20041;-91
2021/09/20 11:02:04;;;;;;;14.13;10.05;;;;;;;;;;5039801;28;20303;-90
2021/09/20 11:04:32;;;;;;;14.10;9.32;;;;;;;;;;5038861;28;20262;-91
2021/09/20 11:07:18;;;;;;;14.30;9.23;;;;;;;;;;5038340;28;20492;-91
2021/09/20 11:10:08;;;;;;;14.73;9.80;;;;;;;;;;5033093;28;20041;-90
2021/09/20 11:12:39;;;;;;;14.50;9.40;;;;;;;;;;5037514;28;20468;-91
2021/09/20 11:15:15;;;;;;;16.20;9.40;;;;;;;;;;5034720;28;20156;-90
2021/09/20 11:20:32;;;;;;;15.88;9.55;;;;;;;;;;5046202;28;20097;-90
2021/09/20 11:23:28;;;;;;;13.27;8.52;;;;;;;;;;5039469;28;20136;-91
2021/09/20 11:26:22;;;;;;;11.68;8.10;;;;;;;;;;5049397;28;20052;-90
2021/09/20 11:28:52;;;;;;;16.30;9.20;;;;;;;;;;5032865;28;20124;-91
2021/09/20 11:31:26;;;;;;;16.00;9.80;;;;;;;;;;5032800;28;20049;-90
2021/09/20 11:33:53;;;;;;;13.73;9.50;;;;;;;;;;5035323;28;20041;-91
2021/09/20 11:36:34;;;;;;;12.30;9.18;;;;;;;;;;5042913;28;20045;-90
2021/09/20 11:39:16;;;;;;;13.20;9.00;;;;;;;;;;5034252;28;20045;-90
2021/09/20 11:41:46;;;;;;;14.50;9.48;;;;;;;;;;5037496;28;20099;-90
2021/09/20 11:44:14;;;;;;;14.85;9.32;;;;;;;;;;5031412;28;20048;-90
2021/09/20 11:46:42;;;;;;;13.00;8.05;;;;;;;;;;5032850;28;20049;-90
2021/09/20 11:49:12;;;;;;;11.45;8.32;;;;;;;;;;5035918;28;20052;-90
2021/09/20 11:51:41;;;;;;;14.07;8.45;;;;;;;;;;5040667;28;20076;-90
2021/09/20 11:54:08;;;;;;;11.80;8.88;;;;;;;;;;5048609;28;20072;-90
2021/09/20 11:56:35;;;;;;;11.65;7.55;;;;;;;;;;5034693;28;20045;-90
2021/09/20 11:59:02;;;;;;;11.85;7.80;;;;;;;;;;5051207;28;20082;-91
2021/09/20 12:01:29;;;;;;;10.98;7.32;;;;;;;;;;5051390;28;20047;-91
2021/09/20 12:03:59;;;;;;;10.05;6.57;;;;;;;;;;5052177;28;20049;-91
2021/09/20 12:06:28;;;;;;;12.05;6.15;;;;;;;;;;5051363;28;20045;-90
2021/09/20 12:08:57;;;;;;;7.85;5.75;;;;;;;;;;5052331;28;20090;-91
2021/09/20 12:11:24;;;;;;;11.02;5.95;;;;;;;;;;5051126;28;20037;-90
2021/09/20 12:13:52;;;;;;;9.95;6.13;;;;;;;;;;5046336;28;20053;-90
2021/09/20 12:16:19;;;;;;;8.38;5.97;;;;;;;;;;5038476;28;20421;-90
2021/09/20 12:18:46;;;;;;;9.43;5.88;;;;;;;;;;5015516;28;20049;-90
2021/09/20 12:21:18;;;;;;;8.63;5.47;;;;;;;;;;5035771;28;20075;-89
2021/09/20 12:23:48;;;;;;;8.35;5.63;;;;;;;;;;5052762;28;20473;-90
2021/09/20 12:26:17;;;;;;;12.55;6.80;;;;;;;;;;5044179;28;20049;-90
2021/09/20 12:28:50;;;;;;;8.48;5.68;;;;;;;;;;5051319;28;20040;-90
2021/09/20 12:31:19;;;;;;;9.15;5.85;;;;;;;;;;5061137;28;20126;-90
2021/09/20 12:33:55;;;;;;;9.35;5.78;;;;;;;;;;5051424;28;20059;-90
2021/09/20 12:36:25;;;;;;;;;;;;;;;;;;5036008;28;20375;-90
2021/09/20 12:39:01;;;;;;;8.20;5.22;;;;;;;;;;5034323;28;19947;-90
2021/09/20 12:41:32;;;;;;;10.63;5.43;;;;;;;;;;5032578;28;20049;-89
2021/09/20 12:44:00;;;;;;;6.75;4.65;;;;;;;;;;5034967;28;20119;-90
2021/09/20 12:46:29;;;;;;;7.03;4.70;;;;;;;;;;5036198;28;20083;-90
2021/09/20 12:48:57;;;;;;;7.10;4.60;;;;;;;;;;5052359;28;20045;-90
2021/09/20 12:51:32;;;;;;;7.32;5.30;;;;;;;;;;5052518;28;20044;-90
2021/09/20 12:53:59;;;;;;;6.83;4.00;;;;;;;;;;5054791;28;20374;-90
2021/09/20 12:56:32;;;;;;;8.38;4.47;;;;;;;;;;5054524;28;20044;-90
2021/09/20 12:59:13;;;;;;;7.60;4.60;;;;;;;;;;5054835;28;20123;-90
2021/09/20 13:01:49;;;;;;;7.68;5.30;;;;;;;;;;5049073;28;20378;-90
2021/09/20 13:04:31;;;;;;;7.75;5.50;;;;;;;;;;5055970;28;20083;-91
2021/09/20 13:07:02;;;;;;;10.43;5.53;;;;;;;;;;5037343;28;20120;-91
2021/09/20 13:09:30;;;;;;;7.72;4.65;;;;;;;;;;5035695;28;20132;-88
2021/09/20 13:12:05;;;;;;;9.00;5.70;;;;;;;;;;5035398;28;20052;-91
2021/09/20 13:14:32;;;;;;;8.23;5.57;;;;;;;;;;5037289;28;20047;-91
2021/09/20 13:17:07;;;;;;;11.10;6.47;;;;;;;;;;5035058;28;20041;-91
2021/09/20 13:19:34;;;;;;;9.25;5.38;;;;;;;;;;5035839;28;20478;-92
2021/09/20 13:22:07;;;;;;;8.88;5.57;;;;;;;;;;5035023;28;20041;-90
2021/09/20 13:24:36;;;;;;;8.07;4.85;;;;;;;;;;5042052;28;20384;-91
2021/09/20 13:27:04;;;;;;;9.70;6.20;;;;;;;;;;5055147;28;20049;-90
2021/09/20 13:29:31;;;;;;;9.52;6.07;;;;;;;;;;5053937;28;20056;-90
2021/09/20 13:31:58;;;;;;;10.43;6.82;;;;;;;;;;5051795;28;20047;-90
2021/09/20 13:34:25;;;;;;;11.15;6.78;;;;;;;;;;5041630;28;20045;-90
2021/09/20 13:36:52;;;;;;;11.38;6.85;;;;;;;;;;5035140;28;20049;-90
2021/09/20 13:39:20;;;;;;;9.50;6.78;;;;;;;;;;5035214;28;20084;-90
2021/09/20 13:41:47;;;;;;;9.32;6.00;;;;;;;;;;5052741;28;20052;-91
2021/09/20 13:44:14;;;;;;;10.55;7.18;;;;;;;;;;5017489;28;20069;-90
2021/09/20 13:46:43;;;;;;;10.23;6.68;;;;;;;;;;5039912;28;20052;-90
2021/09/20 13:49:11;;;;;;;11.15;6.63;;;;;;;;;;5037240;28;20040;-90
2021/09/20 13:51:38;;;;;;;8.55;6.38;;;;;;;;;;5034392;28;20087;-90
2021/09/20 13:54:05;;;;;;;12.38;8.10;;;;;;;;;;5050878;28;20584;-88
2021/09/20 13:56:36;;;;;;;11.30;7.00;;;;;;;;;;5037737;28;20091;-90
2021/09/20 13:59:03;;;;;;;10.38;6.88;;;;;;;;;;5039738;28;20484;-90
2021/09/20 14:01:30;;;;;;;8.80;6.15;;;;;;;;;;5037262;28;20128;-91
2021/09/20 14:03:58;;;;;;;9.40;6.85;;;;;;;;;;5017497;28;20053;-90
2021/09/20 14:06:25;;;;;;;12.90;7.05;;;;;;;;;;5034723;28;20099;-89
2021/09/20 14:08:51;;;;;;;9.63;6.47;;;;;;;;;;5033941;28;20056;-90
2021/09/20 14:11:20;;;;;;;10.50;6.78;;;;;;;;;;5033873;28;20048;-89
2021/09/20 14:13:48;;;;;;;8.32;6.32;;;;;;;;;;5049730;28;20048;-91
2021/09/20 14:16:16;;;;;;;9.48;6.57;;;;;;;;;;5033314;28;20110;-90
2021/09/20 14:18:43;;;;;;;11.30;6.18;;;;;;;;;;5032842;28;20095;-89
2021/09/20 14:21:10;;;;;;;9.32;6.88;;;;;;;;;;5033098;28;20049;-90
2021/09/20 14:23:36;;;;;;;9.80;5.78;;;;;;;;;;5043289;28;20473;-88
2021/09/20 14:26:03;;;;;;;7.88;5.63;;;;;;;;;;5045134;28;20049;-90
2021/09/20 14:28:32;;;;;;;10.20;6.88;;;;;;;;;;5032675;28;20049;-90
2021/09/20 14:31:01;;;;;;;9.85;5.82;;;;;;;;;;5040592;28;20041;-88
2021/09/20 14:33:28;;;;;;;8.90;5.88;;;;;;;;;;5052713;28;20079;-87
2021/09/20 14:35:54;;;;;;;7.50;5.57;;;;;;;;;;5035970;28;20521;-88
2021/09/20 14:38:21;;;;;;;8.60;6.28;;;;;;;;;;5032399;28;20052;-87
2021/09/20 14:40:48;;;;;;;8.18;5.75;;;;;;;;;;5033841;28;20052;-88
2021/09/20 14:43:15;;;;;;;10.32;6.22;;;;;;;;;;5023062;28;20043;-88
2021/09/20 14:45:42;;;;;;;10.88;5.90;;;;;;;;;;5033067;28;20068;-88
2021/09/20 14:48:36;;;;;;;8.73;6.22;;;;;;;;;;5033911;28;20164;-89
2021/09/20 14:51:03;;;;;;;7.90;5.72;;;;;;;;;;5033199;28;20052;-89
2021/09/20 14:53:30;;;;;;;9.70;6.25;;;;;;;;;;5033775;28;20045;-89
2021/09/20 14:55:57;;;;;;;8.10;5.60;;;;;;;;;;5049597;28;20081;-89
2021/09/20 14:58:24;;;;;;;6.97;5.40;;;;;;;;;;5050168;28;20473;-89
2021/09/20 15:00:53;;;;;;;8.18;5.30;;;;;;;;;;5044495;28;20116;-89
2021/09/20 15:03:22;;;;;;;8.85;5.90;;;;;;;;;;5036281;28;20474;-90
2021/09/20 15:05:52;;;;;;;8.98;6.30;;;;;;;;;;5070799;28;20469;-90
2021/09/20 15:08:19;;;;;;;8.32;5.65;;;;;;;;;;5053112;28;20080;-89
2021/09/20 15:10:48;;;;;;;8.25;5.15;;;;;;;;;;5054267;28;20037;-89
2021/09/20 15:13:46;;;;;;;7.88;4.95;;;;;;;;;;5052514;28;20099;-89
2021/09/20 15:16:15;;;;;;;8.82;6.22;;;;;;;;;;5052185;28;20047;-89
2021/09/20 15:18:42;;;;;;;10.88;6.25;;;;;;;;;;5053584;28;20469;-89
2021/09/20 15:21:10;;;;;;;9.02;6.50;;;;;;;;;;5045229;28;20403;-89
2021/09/20 15:23:37;;;;;;;9.07;6.43;;;;;;;;;;5033462;28;20053;-88
2021/09/20 15:26:05;;;;;;;8.35;5.72;;;;;;;;;;5033574;28;20474;-89
2021/09/20 15:28:33;;;;;;;8.77;5.97;;;;;;;;;;5042180;28;20033;-89
2021/09/20 15:31:00;;;;;;;8.38;5.85;;;;;;;;;;5048967;28;20469;-89
2021/09/20 15:33:26;;;;;;;10.52;6.30;;;;;;;;;;5051974;28;20106;-89
2021/09/20 15:35:56;;;;;;;7.80;5.30;;;;;;;;;;5054088;28;20045;-89
2021/09/20 15:38:28;;;;;;;8.90;5.82;;;;;;;;;;5053931;28;20045;-89
2021/09/20 15:40:55;;;;;;;7.53;5.35;;;;;;;;;;5053423;28;20045;-88
2021/09/20 15:43:21;;;;;;;15.25;8.10;;;;;;;;;;5054046;28;20037;-89
2021/09/20 15:45:51;;;;;;;9.27;6.03;;;;;;;;;;5052521;28;20495;-89
2021/09/20 15:48:18;;;;;;;9.75;5.85;;;;;;;;;;5052146;28;20045;-89
2021/09/20 15:50:44;;;;;;;10.60;6.00;;;;;;;;;;5053445;28;20055;-88
2021/09/20 15:53:11;;;;;;;10.02;5.47;;;;;;;;;;5053202;28;20041;-88
2021/09/20 16:01:43;;;;;;;9.30;5.15;;;;;;;;;;5066114;28;20037;-88
2021/09/20 16:04:15;;;;;;;6.70;4.80;;;;;;;;;;5033090;28;20076;-89
2021/09/20 16:06:42;;;;;;;7.65;5.20;;;;;;;;;;5059937;28;20044;-88
2021/09/20 16:09:09;;;;;;;6.95;4.60;;;;;;;;;;5051318;28;20059;-88
2021/09/20 16:11:36;;;;;;;6.93;4.60;;;;;;;;;;5035273;28;20048;-88
2021/09/20 16:14:04;;;;;;;7.25;4.50;;;;;;;;;;5043548;28;20049;-88
2021/09/20 16:16:31;;;;;;;7.13;4.80;;;;;;;;;;5051636;28;20076;-88
2021/09/20 16:18:58;;;;;;;6.50;4.68;;;;;;;;;;5050966;28;20095;-89
2021/09/20 16:21:28;;;;;;;7.95;4.90;;;;;;;;;;5051985;28;20056;-88
2021/09/20 16:23:54;;;;;;;8.23;5.40;;;;;;;;;;5052415;28;20057;-88
2021/09/20 16:26:21;;;;;;;7.50;5.30;;;;;;;;;;5052003;28;20041;-87
2021/09/20 16:28:48;;;;;;;6.72;4.95;;;;;;;;;;5054030;28;20106;-88
2021/09/20 16:31:19;;;;;;;5.72;4.10;;;;;;;;;;5046062;28;20053;-88
2021/09/20 16:33:46;;;;;;;7.07;3.97;;;;;;;;;;5035312;28;20051;-88
2021/09/20 16:36:13;;;;;;;6.60;4.38;;;;;;;;;;5036423;28;20118;-88
2021/09/20 16:38:40;;;;;;;11.18;5.53;;;;;;;;;;5019205;28;20041;-87
2021/09/20 16:41:07;;;;;;;11.73;6.03;;;;;;;;;;5036713;28;20041;-87
2021/09/20 16:43:33;;;;;;;11.18;5.75;;;;;;;;;;5035276;28;20049;-87
2021/09/20 16:46:00;;;;;;;13.32;6.30;;;;;;;;;;5018137;28;20048;-88
2021/09/20 16:48:29;;;;;;;9.65;6.10;;;;;;;;;;5054748;28;20037;-89
2021/09/20 16:50:56;;;;;;;10.10;6.53;;;;;;;;;;5038323;28;20053;-88
2021/09/20 16:53:24;;;;;;;7.18;4.97;;;;;;;;;;5053032;28;20040;-89
2021/09/20 16:55:51;;;;;;;6.75;4.22;;;;;;;;;;5045571;28;20473;-88
2021/09/20 16:58:18;;;;;;;6.03;3.88;;;;;;;;;;5055748;28;20480;-87
2021/09/20 17:00:45;;;;;;;6.70;4.50;;;;;;;;;;5034801;28;20050;-88
2021/09/20 17:03:13;;;;;;;7.95;5.55;;;;;;;;;;5018320;28;20053;-88
2021/09/20 17:05:41;;;;;;;7.45;5.25;;;;;;;;;;5035103;28;20077;-87
2021/09/20 17:08:08;;;;;;;11.05;6.40;;;;;;;;;;5036737;28;20050;-88
2021/09/20 17:10:44;;;;;;;8.43;5.10;;;;;;;;;;5040449;28;20033;-89
2021/09/20 17:13:12;;;;;;;7.53;5.53;;;;;;;;;;5040302;28;20049;-88
2021/09/20 17:15:39;;;;;;;6.75;4.68;;;;;;;;;;5047528;28;20501;-90
2021/09/20 17:18:06;;;;;;;7.68;4.85;;;;;;;;;;5029258;28;20099;-89
2021/09/20 17:20:33;;;;;;;8.70;5.65;;;;;;;;;;5049843;28;20047;-90
2021/09/20 17:23:05;;;;;;;8.55;5.45;;;;;;;;;;5055478;28;20055;-89
2021/09/20 17:25:35;;;;;;;7.43;4.85;;;;;;;;;;5036065;28;20038;-88
2021/09/20 17:28:05;;;;;;;8.60;4.97;;;;;;;;;;5051423;28;20044;-88
2021/09/20 17:30:51;;;;;;;8.35;5.45;;;;;;;;;;5047149;28;20072;-88
2021/09/20 17:36:10;;;;;;;;;;;;;;;;;;;;;
2021/09/20 17:38:42;;;;;;;9.18;6.13;;;;;;;;;;5045838;28;20045;-88
2021/09/20 17:41:09;;;;;;;12.20;6.13;;;;;;;;;;5033538;28;20046;-89
2021/09/20 17:43:36;;;;;;;7.93;5.60;;;;;;;;;;5048194;28;20040;-89
2021/09/20 17:46:03;;;;;;;9.95;5.85;;;;;;;;;;5039015;28;20050;-88
2021/09/20 17:48:36;;;;;;;9.48;6.28;;;;;;;;;;5034331;28;20045;-88
2021/09/20 17:51:09;;;;;;;9.30;6.50;;;;;;;;;;5035088;28;20536;-88
2021/09/20 17:53:53;;;;;;;11.85;7.05;;;;;;;;;;5038570;28;20071;-88
2021/09/20 17:56:34;;;;;;;12.23;7.25;;;;;;;;;;5039620;28;20381;-88
2021/09/20 17:59:02;;;;;;;13.57;6.88;;;;;;;;;;5054402;28;20041;-87
2021/09/20 18:01:33;;;;;;;12.30;6.85;;;;;;;;;;5035417;28;20136;-88
2021/09/20 18:04:02;;;;;;;10.90;6.53;;;;;;;;;;5034433;28;20056;-88
2021/09/20 18:06:29;;;;;;;10.27;5.57;;;;;;;;;;5034490;28;20045;-88
2021/09/20 18:08:59;;;;;;;10.50;4.90;;;;;;;;;;5042909;28;20132;-88
2021/09/20 18:11:25;;;;;;;8.68;5.22;;;;;;;;;;5044767;28;20045;-88
2021/09/20 18:13:55;;;;;;;8.98;5.22;;;;;;;;;;5034791;28;20045;-88
2021/09/20 18:16:28;;;;;;;6.93;4.60;;;;;;;;;;5036394;28;20100;-88
2021/09/20 18:18:58;;;;;;;7.22;4.18;;;;;;;;;;5053873;28;20548;-87
2021/09/20 18:21:35;;;;;;;;;;;;;;;;;;;;;
2021/09/20 18:24:34;;;;;;;7.28;4.72;;;;;;;;;;5052546;28;20048;-88
2021/09/20 18:27:06;;;;;;;10.38;5.47;;;;;;;;;;5052716;28;20488;-87
2021/09/20 18:29:33;;;;;;;8.00;4.93;;;;;;;;;;5049946;28;20045;-87